createdAt,value
2023-03-31T00:04:54.840Z,99308.69
2023-03-31T00:10:10.305Z,99300.66
2023-03-31T00:15:18.165Z,99292.00
2023-03-31T00:20:19.312Z,99288.41
2023-03-31T00:25:20.537Z,99275.28
2023-03-31T00:30:21.743Z,99269.44
2023-03-31T00:35:22.937Z,99276.09
2023-03-31T00:40:24.116Z,99252.16
2023-03-31T00:45:27.107Z,99238.75
2023-03-31T00:50:31.332Z,99219.47
2023-03-31T00:55:32.563Z,99208.81
2023-03-31T01:00:33.764Z,99199.41
2023-03-31T01:05:35.038Z,99186.13
2023-03-31T01:10:41.415Z,99188.00
2023-03-31T01:15:42.649Z,99168.06
2023-03-31T01:20:43.865Z,99157.13
2023-03-31T01:25:45.078Z,99146.94
2023-03-31T01:30:46.231Z,99143.88
2023-03-31T01:35:47.466Z,99126.47
2023-03-31T01:40:48.693Z,99125.22
2023-03-31T01:45:49.941Z,99117.47
2023-03-31T01:50:51.984Z,99110.22
2023-03-31T01:55:53.244Z,99099.75
2023-03-31T02:00:56.840Z,99100.22
2023-03-31T02:05:58.091Z,99098.53
2023-03-31T02:10:59.299Z,99088.03
2023-03-31T02:16:01.497Z,99080.16
2023-03-31T02:21:03.303Z,99063.94
2023-03-31T02:26:04.730Z,99054.06
2023-03-31T02:31:06.473Z,99041.28
2023-03-31T02:36:08.599Z,99014.91
2023-03-31T02:41:10.173Z,98999.78
2023-03-31T02:46:11.941Z,98972.66
2023-03-31T02:51:13.186Z,98962.03
2023-03-31T02:56:14.394Z,98952.94
2023-03-31T03:01:15.693Z,98930.72
2023-03-31T03:06:16.855Z,98902.22
2023-03-31T03:11:18.383Z,98882.94
2023-03-31T03:16:19.661Z,98880.94
2023-03-31T03:21:20.889Z,98870.00
2023-03-31T03:26:23.879Z,98868.94
2023-03-31T03:31:26.176Z,98854.72
2023-03-31T03:36:27.659Z,98866.75
2023-03-31T03:41:28.844Z,98849.63
2023-03-31T03:46:30.073Z,98824.19
2023-03-31T03:51:31.358Z,98814.78
2023-03-31T03:56:32.570Z,98800.59
2023-03-31T04:01:33.783Z,98800.59
2023-03-31T04:06:35.125Z,98805.84
2023-03-31T04:11:36.319Z,98801.03
2023-03-31T04:16:38.499Z,98790.53
2023-03-31T04:21:45.172Z,98782.69
2023-03-31T04:26:46.390Z,98765.88
2023-03-31T04:31:47.726Z,98750.47
2023-03-31T04:36:48.929Z,98743.97
2023-03-31T04:41:50.323Z,98713.16
2023-03-31T04:46:51.478Z,98683.00
2023-03-31T04:51:52.613Z,98679.47
2023-03-31T04:56:53.825Z,98662.41
2023-03-31T05:01:55.025Z,98660.31
2023-03-31T05:06:56.519Z,98647.25
2023-03-31T05:11:57.913Z,98636.22
2023-03-31T05:16:59.308Z,98621.91
2023-03-31T05:22:00.781Z,98619.28
2023-03-31T05:27:01.953Z,98596.16
2023-03-31T05:32:03.226Z,98593.97
2023-03-31T05:37:04.530Z,98590.28
2023-03-31T05:42:05.972Z,98582.84
2023-03-31T05:47:07.200Z,98574.03
2023-03-31T05:52:08.408Z,98561.25
2023-03-31T05:57:10.038Z,98557.84
2023-03-31T06:02:11.359Z,98557.53
2023-03-31T06:07:13.365Z,98551.22
2023-03-31T06:12:15.910Z,98547.50
2023-03-31T06:17:17.144Z,98544.88
2023-03-31T06:22:18.286Z,98531.78
2023-03-31T06:27:19.541Z,98527.63
2023-03-31T06:32:21.517Z,98522.06
2023-03-31T06:37:22.698Z,98520.19
2023-03-31T06:42:23.927Z,98522.81
2023-03-31T06:47:25.161Z,98514.97
2023-03-31T06:52:26.438Z,98516.72
2023-03-31T06:57:27.643Z,98503.81
2023-03-31T07:02:29.165Z,98500.88
2023-03-31T07:07:30.503Z,98503.06
2023-03-31T07:12:31.654Z,98508.97
2023-03-31T07:17:32.903Z,98493.28
2023-03-31T07:22:34.081Z,98493.63
2023-03-31T07:27:35.317Z,98501.50
2023-03-31T07:32:40.157Z,98482.28
2023-03-31T07:37:41.896Z,98478.38
2023-03-31T07:42:43.262Z,98482.31
2023-03-31T07:47:46.273Z,98478.78
2023-03-31T07:52:47.609Z,98476.13
2023-03-31T07:57:48.843Z,98475.38
2023-03-31T08:02:50.153Z,98471.53
2023-03-31T08:07:51.805Z,98463.66
2023-03-31T08:12:52.998Z,98460.75
2023-03-31T08:17:54.184Z,98447.16
2023-03-31T08:22:55.449Z,98443.22
2023-03-31T08:27:56.946Z,98435.41
2023-03-31T08:32:58.198Z,98434.03
2023-03-31T08:37:59.441Z,98430.25
2023-03-31T08:43:00.713Z,98433.09
2023-03-31T08:48:01.939Z,98424.88
2023-03-31T08:53:03.808Z,98417.28
2023-03-31T08:58:05.174Z,98415.03
2023-03-31T09:03:07.986Z,98406.69
2023-03-31T09:08:09.413Z,98399.03
2023-03-31T09:13:10.844Z,98409.19
2023-03-31T09:18:12.074Z,98399.44
2023-03-31T09:23:13.301Z,98386.03
2023-03-31T09:28:14.654Z,98387.91
2023-03-31T09:33:16.044Z,98382.31
2023-03-31T09:38:17.315Z,98380.06
2023-03-31T09:43:18.520Z,98358.84
2023-03-31T09:48:19.710Z,98366.44
2023-03-31T09:53:20.875Z,98352.34
2023-03-31T09:58:24.706Z,98349.78
2023-03-31T10:03:29.288Z,98336.22
2023-03-31T10:08:30.707Z,98333.56
2023-03-31T10:13:31.963Z,98330.19
2023-03-31T10:18:33.198Z,98322.88
2023-03-31T10:23:34.412Z,98329.38
2023-03-31T10:28:35.613Z,98325.84
2023-03-31T10:33:36.942Z,98322.00
2023-03-31T10:38:40.078Z,98318.34
2023-03-31T10:43:41.404Z,98298.94
2023-03-31T10:48:43.809Z,98295.16
2023-03-31T10:53:45.069Z,98274.34
2023-03-31T10:58:54.968Z,98270.81
2023-03-31T11:03:59.622Z,98272.53
2023-03-31T11:09:00.834Z,98273.75
2023-03-31T11:14:02.027Z,98274.84
2023-03-31T11:19:03.497Z,98301.47
2023-03-31T11:24:04.641Z,98340.75
2023-03-31T11:29:05.825Z,98341.88
2023-03-31T11:34:07.090Z,98332.09
2023-03-31T11:39:08.301Z,98320.22
2023-03-31T11:44:09.484Z,98330.91
2023-03-31T11:49:10.681Z,98321.13
2023-03-31T11:54:12.445Z,98324.53
2023-03-31T11:59:14.285Z,98310.03
2023-03-31T12:04:15.676Z,98289.59
2023-03-31T12:09:16.946Z,98278.03
2023-03-31T12:14:18.106Z,98279.28
2023-03-31T12:19:19.304Z,98272.06
2023-03-31T12:24:20.546Z,98259.50
2023-03-31T12:29:21.693Z,98254.53
2023-03-31T12:34:23.192Z,98233.28
2023-03-31T12:39:24.523Z,98237.72
2023-03-31T12:44:25.900Z,98254.44
2023-03-31T12:49:27.256Z,98257.28
2023-03-31T12:54:28.409Z,98247.66
2023-03-31T12:59:29.589Z,98239.97
2023-03-31T13:04:30.789Z,98230.00
2023-03-31T13:09:32.080Z,98223.72
2023-03-31T13:14:33.297Z,98225.03
2023-03-31T13:19:34.508Z,98235.41
2023-03-31T13:24:35.868Z,98236.00
2023-03-31T13:29:37.076Z,98234.34
2023-03-31T13:34:38.236Z,98231.44
2023-03-31T13:39:39.361Z,98230.81
2023-03-31T13:44:40.580Z,98219.53
2023-03-31T13:49:42.254Z,98232.50
2023-03-31T13:54:43.489Z,98229.56
2023-03-31T13:59:44.665Z,98222.91
2023-03-31T14:04:46.049Z,98214.59
2023-03-31T14:09:49.915Z,98208.00
2023-03-31T14:14:51.223Z,98211.78
2023-03-31T14:19:52.364Z,98202.47
2023-03-31T14:24:53.544Z,98186.44
2023-03-31T14:29:54.791Z,98178.03
2023-03-31T14:34:57.143Z,98188.09
2023-03-31T14:39:58.868Z,98181.47
2023-03-31T14:45:00.128Z,98176.78
2023-03-31T14:50:02.024Z,98173.00
2023-03-31T14:55:03.246Z,98161.59
2023-03-31T15:00:06.558Z,98158.53
2023-03-31T15:05:07.854Z,98150.22
2023-03-31T15:10:09.179Z,98140.69
2023-03-31T15:15:10.309Z,98143.63
2023-03-31T15:20:12.294Z,98140.47
2023-03-31T15:25:13.477Z,98140.81
2023-03-31T15:30:14.666Z,98138.59
2023-03-31T15:40:22.087Z,98178.59
2023-03-31T15:45:23.274Z,98191.31
2023-03-31T15:50:24.442Z,98198.00
2023-03-31T15:55:26.183Z,98201.91
2023-03-31T16:00:27.332Z,98212.22
2023-03-31T16:05:29.382Z,98201.44
2023-03-31T16:10:33.357Z,98192.13
2023-03-31T16:15:34.593Z,98220.78
2023-03-31T16:20:37.298Z,98216.38
2023-03-31T16:25:38.524Z,98207.03
2023-03-31T16:30:39.705Z,98226.91
2023-03-31T16:35:41.649Z,98194.41
2023-03-31T16:40:42.813Z,98184.47
2023-03-31T16:45:43.992Z,98208.06
2023-03-31T16:50:45.406Z,98199.34
2023-03-31T16:55:47.181Z,98195.94
2023-03-31T17:00:48.536Z,98179.69
2023-03-31T17:05:52.529Z,98184.19
2023-03-31T17:10:53.972Z,98180.03
2023-03-31T17:16:01.436Z,98176.25
2023-03-31T17:21:14.436Z,98187.75
2023-03-31T17:26:15.960Z,98165.53
2023-03-31T17:31:17.182Z,98157.03
2023-03-31T17:36:18.551Z,98167.44
2023-03-31T17:41:19.871Z,98170.84
2023-03-31T17:46:21.207Z,98176.50
2023-03-31T17:51:23.087Z,98188.63
2023-03-31T17:56:24.779Z,98202.19
2023-03-31T18:01:27.434Z,98197.13
2023-03-31T18:06:28.682Z,98194.72
2023-03-31T18:11:31.072Z,98199.91
2023-03-31T18:16:32.470Z,98202.06
2023-03-31T18:21:34.950Z,98202.00
2023-03-31T18:26:36.544Z,98202.75
2023-03-31T18:31:38.093Z,98202.00
2023-03-31T18:36:40.198Z,98203.13
2023-03-31T18:41:41.534Z,98206.50
2023-03-31T18:46:42.780Z,98219.16
2023-03-31T18:51:44.057Z,98220.19
2023-03-31T18:56:45.830Z,98228.59
2023-03-31T19:01:46.994Z,98222.34
2023-03-31T19:06:48.206Z,98219.81
2023-03-31T19:11:49.650Z,98219.75
2023-03-31T19:16:50.968Z,98218.28
2023-03-31T19:21:52.731Z,98217.88
2023-03-31T19:26:54.033Z,98229.31
2023-03-31T19:31:56.114Z,98223.97
2023-03-31T19:36:57.728Z,98222.38
2023-03-31T19:41:58.900Z,98230.06
2023-03-31T19:47:00.232Z,98223.72
2023-03-31T19:52:01.417Z,98227.44
2023-03-31T19:57:02.761Z,98220.91
2023-03-31T20:02:05.385Z,98214.41
2023-03-31T20:07:06.727Z,98216.59
2023-03-31T20:12:08.028Z,98215.09
2023-03-31T20:17:10.048Z,98225.75
2023-03-31T20:22:11.178Z,98219.41
2023-03-31T20:27:12.363Z,98221.59
2023-03-31T20:32:17.051Z,98209.91
2023-03-31T20:37:18.427Z,98213.28
2023-03-31T20:42:20.589Z,98208.72
2023-03-31T20:47:21.756Z,98213.22
2023-03-31T20:52:23.840Z,98216.19
2023-03-31T20:57:26.143Z,98213.13
2023-03-31T21:02:27.505Z,98206.59
2023-03-31T21:07:28.773Z,98217.34
2023-03-31T21:12:30.077Z,98215.84
2023-03-31T21:17:31.243Z,98212.34
2023-03-31T21:22:32.431Z,98218.28
2023-03-31T21:27:33.609Z,98213.03
2023-03-31T21:32:34.865Z,98217.00
2023-03-31T21:37:38.944Z,98219.81
2023-03-31T21:42:40.098Z,98212.38
2023-03-31T21:47:41.448Z,98212.72
2023-03-31T21:52:42.697Z,98214.22
2023-03-31T21:57:43.930Z,98204.16
2023-03-31T22:02:45.100Z,98207.53
2023-03-31T22:07:46.560Z,98201.88
2023-03-31T22:12:47.758Z,98194.75
2023-03-31T22:17:48.984Z,98198.47
2023-03-31T22:22:50.293Z,98206.00
2023-03-31T22:27:51.408Z,98198.81
2023-03-31T22:32:52.623Z,98206.53
2023-03-31T22:37:53.822Z,98207.78
2023-03-31T22:42:57.386Z,98198.22
2023-03-31T22:47:58.671Z,98200.72
2023-03-31T22:52:59.840Z,98200.13
2023-03-31T22:58:01.088Z,98209.69
2023-03-31T23:03:02.408Z,98205.69
2023-03-31T23:08:03.605Z,98201.25
2023-03-31T23:13:07.014Z,98203.22
2023-03-31T23:18:08.275Z,98194.09
2023-03-31T23:23:09.563Z,98192.47
2023-03-31T23:28:10.794Z,98191.59
2023-03-31T23:33:12.029Z,98191.94
2023-03-31T23:38:13.210Z,98194.13
2023-03-31T23:43:14.467Z,98192.38
2023-03-31T23:48:15.601Z,98190.84
2023-03-31T23:53:16.926Z,98196.72
2023-03-31T23:58:18.117Z,98191.31
